Time;durP1;ratioP1;P1;durP2;ratioP2;P2;SDS_P1;SDS_P2;PMS_P1;PMS_P2;Temp;Humidity;BMP_temperature;BMP_pressure;BME280_temperature;BME280_humidity;BME280_pressure;Samples;Min_cycle;Max_cycle;Signal;HPM_P1;HPM_P2
2021/01/19 00:02:08;;;;;;;11.85;10.27;;;4.80;99.90;;;;;;5011013;28;20420;-66
2021/01/19 00:04:34;;;;;;;11.60;9.32;;;4.80;99.90;;;;;;5010487;28;20909;-66
2021/01/19 00:07:00;;;;;;;15.37;10.40;;;4.80;96.20;;;;;;5010816;28;20529;-66
2021/01/19 00:09:26;;;;;;;12.75;9.50;;;4.90;96.10;;;;;;5011195;28;20424;-66
2021/01/19 00:11:52;;;;;;;14.18;9.55;;;4.90;1.00;;;;;;5010955;28;20416;-67
2021/01/19 00:14:19;;;;;;;11.85;9.70;;;4.90;1.00;;;;;;5011062;28;20413;-66
2021/01/19 00:16:46;;;;;;;15.13;10.32;;;4.80;1.00;;;;;;5010535;28;20424;-66
2021/01/19 00:19:12;;;;;;;12.40;9.57;;;4.80;1.00;;;;;;5011551;28;20416;-66
2021/01/19 00:21:38;;;;;;;15.95;10.95;;;4.90;1.00;;;;;;5010564;28;20447;-66
2021/01/19 00:24:05;;;;;;;12.50;10.80;;;4.90;1.00;;;;;;5010788;28;20486;-66
2021/01/19 00:26:31;;;;;;;20.25;13.95;;;4.90;1.00;;;;;;5010379;28;20424;-66
2021/01/19 00:28:57;;;;;;;17.77;11.55;;;4.90;1.00;;;;;;5010801;28;20785;-66
2021/01/19 00:31:23;;;;;;;14.10;10.03;;;4.90;1.00;;;;;;5011017;28;20427;-66
2021/01/19 00:33:51;;;;;;;13.35;9.95;;;4.90;99.90;;;;;;5010906;28;20405;-66
2021/01/19 00:36:17;;;;;;;14.00;9.45;;;4.80;99.90;;;;;;5010481;28;20417;-66
2021/01/19 00:38:43;;;;;;;14.70;10.20;;;4.80;99.90;;;;;;5013647;28;20408;-66
2021/01/19 00:41:09;;;;;;;11.40;9.25;;;4.80;84.90;;;;;;5014378;28;20413;-66
2021/01/19 00:43:35;;;;;;;13.98;9.60;;;4.90;99.90;;;;;;5014237;28;20429;-66
2021/01/19 00:46:01;;;;;;;10.30;8.47;;;4.90;1.00;;;;;;5014232;28;20416;-66
2021/01/19 00:48:27;;;;;;;13.60;9.43;;;4.90;1.00;;;;;;5014139;28;20912;-66
2021/01/19 00:50:55;;;;;;;22.50;11.52;;;4.90;1.00;;;;;;5014183;28;20417;-66
2021/01/19 00:53:21;;;;;;;18.63;11.30;;;4.90;1.00;;;;;;5014422;28;20443;-66
2021/01/19 00:55:47;;;;;;;13.90;8.18;;;4.90;99.90;;;;;;5013816;28;20409;-66
2021/01/19 00:58:14;;;;;;;11.65;8.15;;;4.90;99.90;;;;;;5014131;28;20420;-66
2021/01/19 01:00:40;;;;;;;13.55;9.05;;;4.90;99.90;;;;;;5013853;28;20416;-66
2021/01/19 01:03:06;;;;;;;17.35;9.70;;;4.90;99.90;;;;;;5013867;28;20432;-66
2021/01/19 01:05:33;;;;;;;12.35;8.02;;;4.90;99.80;;;;;;5013915;28;20479;-66
2021/01/19 01:08:02;;;;;;;10.75;6.90;;;4.90;3.70;;;;;;5013873;28;20428;-66
2021/01/19 01:10:29;;;;;;;8.60;7.50;;;4.90;99.90;;;;;;5013799;28;20421;-66
2021/01/19 01:12:55;;;;;;;10.18;7.40;;;4.90;1.00;;;;;;5013714;28;20420;-66
2021/01/19 01:15:31;;;;;;;11.20;6.47;;;4.90;1.00;;;;;;5013779;28;20427;-66
2021/01/19 01:17:57;;;;;;;11.77;7.00;;;4.90;1.00;;;;;;5013423;28;20416;-66
2021/01/19 01:20:24;;;;;;;10.57;7.03;;;4.90;99.90;;;;;;5013732;28;20420;-66
2021/01/19 01:22:50;;;;;;;12.23;6.30;;;5.00;99.90;;;;;;5013762;28;20404;-66
2021/01/19 01:25:17;;;;;;;12.23;7.18;;;5.00;99.90;;;;;;5013138;28;20412;-66
2021/01/19 01:27:45;;;;;;;11.75;8.20;;;5.00;99.90;;;;;;5013614;28;20427;-66
2021/01/19 01:30:13;;;;;;;15.15;8.40;;;5.00;99.20;;;;;;5013177;28;20416;-66
2021/01/19 01:32:39;;;;;;;15.25;8.75;;;5.00;1.00;;;;;;5013540;28;20439;-66
2021/01/19 01:35:07;;;;;;;11.60;6.43;;;5.00;2.50;;;;;;5013288;28;20439;-66
2021/01/19 01:37:33;;;;;;;12.25;7.50;;;4.90;1.00;;;;;;5013554;28;20828;-66
2021/01/19 01:39:59;;;;;;;10.30;5.70;;;4.90;1.00;;;;;;5013451;28;20431;-66
2021/01/19 01:42:26;;;;;;;10.63;6.03;;;4.90;1.00;;;;;;5013304;28;20439;-66
2021/01/19 01:44:53;;;;;;;8.95;5.22;;;4.90;1.00;;;;;;5012801;28;20435;-66
2021/01/19 01:47:23;;;;;;;8.80;5.30;;;4.90;1.00;;;;;;5013520;28;20413;-66
2021/01/19 01:49:50;;;;;;;9.90;5.68;;;4.90;1.00;;;;;;5014000;28;20416;-66
2021/01/19 01:52:18;;;;;;;11.73;6.40;;;4.90;1.00;;;;;;5013868;28;20417;-66
2021/01/19 01:54:48;;;;;;;5.60;4.40;;;5.00;99.90;;;;;;5012765;28;20463;-67
2021/01/19 01:57:15;;;;;;;8.18;4.93;;;5.00;99.90;;;;;;5013813;28;20420;-66
2021/01/19 01:59:42;;;;;;;9.57;5.30;;;4.90;99.90;;;;;;5013574;28;20431;-66
2021/01/19 02:02:09;;;;;;;7.00;5.00;;;4.90;99.90;;;;;;5013111;28;20417;-66
2021/01/19 02:04:36;;;;;;;7.32;4.30;;;4.90;99.90;;;;;;5012795;28;20433;-66
2021/01/19 02:07:06;;;;;;;6.72;4.38;;;4.90;99.90;;;;;;5013505;28;20417;-66
2021/01/19 02:09:39;;;;;;;7.47;5.03;;;4.80;1.00;;;;;;5015596;28;20419;-66
2021/01/19 02:12:09;;;;;;;10.87;4.80;;;4.80;1.00;;;;;;5015217;28;20408;-66
2021/01/19 02:14:37;;;;;;;6.07;4.55;;;4.80;99.90;;;;;;5012442;28;20413;-66
2021/01/19 02:17:09;;;;;;;7.95;4.25;;;4.80;99.90;;;;;;5012965;28;20421;-66
2021/01/19 02:20:11;;;;;;;6.97;4.72;;;4.80;99.90;;;;;;5012296;28;20905;-66
2021/01/19 02:23:01;;;;;;;6.90;3.80;;;4.80;99.90;;;;;;5012226;28;20424;-66
2021/01/19 02:25:36;;;;;;;5.93;4.07;;;4.80;99.90;;;;;;5008936;28;20933;-66
2021/01/19 02:28:13;;;;;;;7.60;4.00;;;4.80;99.90;;;;;;5012366;28;20420;-66
2021/01/19 02:30:47;;;;;;;6.97;3.70;;;4.90;99.90;;;;;;5012042;28;20437;-66
2021/01/19 02:33:22;;;;;;;5.68;3.70;;;4.80;99.90;;;;;;5012447;28;20475;-66
2021/01/19 02:35:53;;;;;;;5.97;3.83;;;4.80;1.00;;;;;;5011966;28;20973;-66
2021/01/19 02:38:33;;;;;;;6.88;3.53;;;4.90;1.00;;;;;;5011933;28;20462;-66
2021/01/19 02:41:01;;;;;;;8.70;5.80;;;4.80;99.90;;;;;;5011904;28;20413;-66
2021/01/19 02:43:29;;;;;;;11.93;4.45;;;4.80;99.90;;;;;;5012069;28;20431;-66
2021/01/19 02:45:57;;;;;;;7.38;4.18;;;4.80;99.90;;;;;;5011970;28;20548;-66
2021/01/19 02:48:25;;;;;;;4.20;2.85;;;4.80;99.90;;;;;;5011909;28;20420;-66
2021/01/19 02:50:52;;;;;;;4.30;2.80;;;4.80;99.90;;;;;;5012027;28;20784;-66
2021/01/19 02:53:18;;;;;;;5.97;3.28;;;4.80;1.00;;;;;;5011798;28;20427;-66
2021/01/19 02:55:46;;;;;;;6.23;3.90;;;4.80;1.00;;;;;;5011304;28;20916;-66
2021/01/19 02:58:22;;;;;;;3.40;2.58;;;4.80;1.00;;;;;;5012124;28;20412;-66
2021/01/19 03:01:00;;;;;;;5.55;2.90;;;4.70;1.00;;;;;;5011224;28;20417;-66
2021/01/19 03:03:30;;;;;;;3.55;2.67;;;4.80;99.90;;;;;;5011770;28;20432;-66
2021/01/19 03:05:57;;;;;;;5.55;2.40;;;4.80;99.90;;;;;;5011512;28;20420;-66
2021/01/19 03:08:26;;;;;;;3.97;2.30;;;4.70;99.90;;;;;;5011537;28;20416;-66
2021/01/19 03:10:54;;;;;;;5.00;2.67;;;4.60;99.90;;;;;;5011708;28;20475;-66
2021/01/19 03:13:21;;;;;;;4.47;2.55;;;4.70;99.90;;;;;;5011759;28;20417;-66
2021/01/19 03:15:47;;;;;;;5.97;2.78;;;4.70;99.90;;;;;;5011397;28;20840;-66
2021/01/19 03:18:15;;;;;;;6.00;3.05;;;4.60;99.90;;;;;;5011463;28;20528;-66
2021/01/19 03:20:42;;;;;;;5.50;3.42;;;4.60;99.90;;;;;;5011392;28;20770;-66
2021/01/19 03:23:08;;;;;;;4.22;2.88;;;4.60;99.90;;;;;;5011430;28;20829;-66
2021/01/19 03:25:34;;;;;;;7.00;3.53;;;4.60;24.30;;;;;;5011143;28;20896;-65
2021/01/19 03:28:00;;;;;;;8.20;3.60;;;4.60;1.00;;;;;;5011328;28;20420;-65
2021/01/19 03:30:26;;;;;;;8.68;3.70;;;4.70;1.00;;;;;;5011261;28;20904;-65
2021/01/19 03:32:53;;;;;;;7.30;3.70;;;4.70;1.00;;;;;;5011351;28;20420;-65
2021/01/19 03:35:19;;;;;;;10.25;4.18;;;4.60;1.00;;;;;;5010691;28;20416;-65
2021/01/19 03:37:46;;;;;;;4.82;3.00;;;4.60;1.00;;;;;;5011327;28;20475;-65
2021/01/19 03:40:13;;;;;;;7.50;3.30;;;4.60;1.00;;;;;;5011037;28;20416;-65
2021/01/19 03:42:39;;;;;;;6.70;3.53;;;4.60;1.00;;;;;;5011306;28;20416;-65
2021/01/19 03:45:07;;;;;;;4.88;3.63;;;4.60;99.90;;;;;;5010750;28;20429;-66
2021/01/19 03:47:35;;;;;;;8.80;3.78;;;4.50;99.90;;;;;;5011223;28;20432;-66
2021/01/19 03:50:03;;;;;;;5.88;2.88;;;4.50;99.90;;;;;;5010936;28;20467;-66
2021/01/19 03:52:29;;;;;;;8.35;3.53;;;4.50;99.90;;;;;;5011276;28;20420;-66
2021/01/19 03:54:56;;;;;;;7.30;4.18;;;4.50;99.90;;;;;;5010892;28;20462;-66
2021/01/19 03:57:22;;;;;;;6.13;3.63;;;4.60;99.90;;;;;;5011260;28;20471;-66
2021/01/19 03:59:48;;;;;;;3.97;3.78;;;4.60;99.90;;;;;;5011440;28;20412;-66
2021/01/19 04:02:14;;;;;;;0.00;0.00;;;4.60;99.90;;;;;;5011359;28;20416;-66
2021/01/19 04:04:40;;;;;;;0.00;0.00;;;4.60;99.90;;;;;;5011394;28;20494;-66
2021/01/19 04:07:07;;;;;;;0.00;0.00;;;4.60;99.90;;;;;;5012001;28;20455;-67
2021/01/19 04:09:33;;;;;;;0.00;0.00;;;4.60;99.90;;;;;;5011970;28;20421;-66
2021/01/19 04:12:00;;;;;;;0.00;0.00;;;4.60;99.90;;;;;;5015970;28;20427;-66
2021/01/19 04:14:28;;;;;;;0.00;0.00;;;4.60;99.90;;;;;;5022656;28;20413;-66
2021/01/19 04:16:54;;;;;;;0.00;0.00;;;4.50;99.90;;;;;;5023336;28;20416;-66
2021/01/19 04:19:20;;;;;;;1.98;1.98;;;4.60;99.90;;;;;;5023013;28;20424;-66
2021/01/19 04:21:46;;;;;;;0.30;0.30;;;4.60;99.90;;;;;;5026300;28;20412;-66
2021/01/19 04:24:12;;;;;;;0.00;0.00;;;4.60;99.90;;;;;;5018413;28;20856;-65
2021/01/19 04:26:38;;;;;;;0.00;0.00;;;4.60;99.90;;;;;;5020381;28;20454;-65
2021/01/19 04:29:05;;;;;;;0.00;0.00;;;4.60;99.90;;;;;;5015661;28;20415;-65
2021/01/19 04:31:31;;;;;;;0.10;0.10;;;4.50;99.90;;;;;;5014456;28;20487;-65
2021/01/19 04:33:58;;;;;;;0.00;0.00;;;4.50;99.90;;;;;;5015028;28;20419;-65
2021/01/19 04:36:24;;;;;;;0.00;0.00;;;4.50;99.90;;;;;;5014429;28;20421;-65
2021/01/19 04:38:50;;;;;;;0.20;0.20;;;4.50;1.00;;;;;;5014684;28;20416;-66
2021/01/19 04:41:16;;;;;;;1.40;1.40;;;4.50;1.00;;;;;;5014657;28;20412;-66
2021/01/19 04:43:43;;;;;;;0.00;0.00;;;4.40;1.00;;;;;;5014666;28;20475;-66
2021/01/19 04:46:11;;;;;;;0.10;0.10;;;4.30;56.40;;;;;;5014344;28;20424;-65
2021/01/19 04:48:37;;;;;;;0.00;0.00;;;4.20;99.90;;;;;;5014463;28;20413;-65
2021/01/19 04:51:05;;;;;;;0.00;0.00;;;4.30;99.90;;;;;;5014590;28;20475;-66
2021/01/19 04:53:37;;;;;;;0.00;0.00;;;4.30;99.90;;;;;;5014314;28;20499;-66
2021/01/19 04:56:04;;;;;;;0.00;0.00;;;4.20;99.90;;;;;;5014086;28;20885;-66
2021/01/19 04:58:31;;;;;;;0.00;0.00;;;4.30;1.00;;;;;;5014315;28;20412;-66
2021/01/19 05:01:07;;;;;;;0.00;0.00;;;4.20;1.00;;;;;;5014113;28;20495;-66
2021/01/19 05:03:42;;;;;;;0.00;0.00;;;4.10;99.90;;;;;;5014342;28;20428;-66
2021/01/19 05:07:02;;;;;;;0.00;0.00;;;4.10;99.90;;;;;;5014076;28;20850;-66
2021/01/19 05:09:35;;;;;;;0.00;0.00;;;4.00;99.90;;;;;;5014395;28;20808;-66
2021/01/19 05:12:04;;;;;;;0.00;0.00;;;4.10;99.90;;;;;;5013980;28;20495;-65
2021/01/19 05:14:37;;;;;;;0.00;0.00;;;4.10;1.00;;;;;;5014144;28;20417;-65
2021/01/19 05:17:03;;;;;;;0.00;0.00;;;4.00;1.00;;;;;;5013699;28;20425;-65
2021/01/19 05:19:30;;;;;;;0.00;0.00;;;4.10;20.70;;;;;;5013755;28;20955;-65
2021/01/19 05:21:57;;;;;;;0.00;0.00;;;4.10;99.90;;;;;;5013672;28;20427;-65
2021/01/19 05:24:24;;;;;;;0.00;0.00;;;4.10;99.90;;;;;;5013376;28;20487;-65
2021/01/19 05:26:51;;;;;;;0.10;0.10;;;4.10;99.90;;;;;;5013309;28;20909;-65
2021/01/19 05:29:17;;;;;;;3.13;2.00;;;4.00;1.00;;;;;;5007981;28;20461;-65
2021/01/19 05:31:50;;;;;;;0.00;0.00;;;4.00;1.00;;;;;;4993971;28;20447;-65
2021/01/19 05:34:16;;;;;;;0.00;0.00;;;3.90;56.10;;;;;;4993600;28;20445;-65
2021/01/19 05:36:47;;;;;;;0.00;0.00;;;3.90;94.90;;;;;;4993403;28;20484;-65
2021/01/19 05:39:16;;;;;;;0.00;0.00;;;3.90;99.90;;;;;;4993353;28;20414;-65
2021/01/19 05:41:44;;;;;;;0.00;0.00;;;3.90;99.90;;;;;;4993766;28;20418;-65
2021/01/19 05:44:19;;;;;;;0.10;0.10;;;3.90;99.90;;;;;;4993507;28;20430;-65
2021/01/19 05:46:52;;;;;;;0.00;0.00;;;3.90;1.00;;;;;;4992992;28;20425;-64
2021/01/19 05:49:20;;;;;;;0.00;0.00;;;3.90;1.00;;;;;;4993571;28;20464;-64
2021/01/19 05:51:49;;;;;;;0.00;0.00;;;3.80;22.50;;;;;;4993636;28;20419;-64
2021/01/19 05:54:24;;;;;;;0.00;0.00;;;3.80;99.90;;;;;;4993513;28;20420;-64
2021/01/19 05:56:50;;;;;;;0.00;0.00;;;3.90;99.90;;;;;;4993303;28;20497;-64
2021/01/19 05:59:28;;;;;;;0.00;0.00;;;3.90;99.90;;;;;;4993398;28;20422;-64
2021/01/19 06:02:00;;;;;;;0.00;0.00;;;3.90;99.90;;;;;;4993421;28;20852;-64
2021/01/19 06:04:43;;;;;;;4.22;3.80;;;3.90;99.90;;;;;;4993290;28;20434;-64
2021/01/19 06:07:12;;;;;;;0.00;0.00;;;3.90;99.90;;;;;;4992723;28;20426;-64
2021/01/19 06:09:39;;;;;;;0.00;0.00;;;3.90;99.90;;;;;;4992989;28;20835;-64
2021/01/19 06:12:06;;;;;;;0.00;0.00;;;3.90;1.00;;;;;;4993527;28;20419;-65
2021/01/19 06:14:33;;;;;;;0.00;0.00;;;4.00;1.00;;;;;;4993106;28;20411;-64
2021/01/19 06:17:10;;;;;;;0.00;0.00;;;3.90;1.00;;;;;;4992572;28;20441;-65
2021/01/19 06:19:37;;;;;;;0.00;0.00;;;3.90;14.80;;;;;;4993186;28;20469;-63
2021/01/19 06:22:12;;;;;;;0.00;0.00;;;3.90;1.00;;;;;;4992967;28;20760;-63
2021/01/19 06:24:41;;;;;;;0.00;0.00;;;3.90;99.90;;;;;;4993030;28;20508;-62
2021/01/19 06:27:08;;;;;;;0.00;0.00;;;3.90;99.90;;;;;;4993021;28;20473;-62
2021/01/19 06:29:35;;;;;;;0.00;0.00;;;4.00;99.90;;;;;;4992971;28;20464;-64
2021/01/19 06:32:03;;;;;;;0.00;0.00;;;4.00;99.90;;;;;;4990403;28;20415;-64
2021/01/19 06:34:33;;;;;;;0.40;0.40;;;4.00;99.90;;;;;;4992133;28;20418;-63
2021/01/19 06:37:00;;;;;;;0.50;0.20;;;4.00;99.90;;;;;;4992310;28;20437;-64
2021/01/19 06:39:33;;;;;;;2.10;1.50;;;4.10;99.90;;;;;;4992614;28;20418;-63
2021/01/19 06:42:05;;;;;;;1.70;1.60;;;4.10;99.90;;;;;;4993022;28;20446;-62
2021/01/19 06:44:36;;;;;;;0.00;0.00;;;4.00;99.90;;;;;;4992661;28;20854;-62
2021/01/19 06:47:03;;;;;;;0.00;0.00;;;4.00;99.90;;;;;;4992774;28;20294;-62
2021/01/19 06:49:33;;;;;;;0.35;0.35;;;4.00;99.90;;;;;;4993526;28;20234;-63
2021/01/19 06:52:04;;;;;;;0.28;0.28;;;4.00;99.90;;;;;;4993295;28;20206;-62
2021/01/19 06:54:40;;;;;;;3.83;3.80;;;3.90;99.90;;;;;;4993237;28;20203;-63
2021/01/19 06:57:22;;;;;;;0.00;0.00;;;4.00;1.00;;;;;;4993510;28;20208;-62
2021/01/19 07:00:05;;;;;;;0.00;0.00;;;4.00;1.00;;;;;;4994496;28;20223;-62
2021/01/19 07:02:35;;;;;;;0.00;0.00;;;3.90;1.00;;;;;;4994964;28;20202;-62
2021/01/19 07:05:09;;;;;;;5.18;4.97;;;4.00;99.90;;;;;;4995140;28;20238;-62
2021/01/19 07:07:41;;;;;;;1.27;1.27;;;4.00;99.90;;;;;;4994617;28;20298;-62
2021/01/19 07:10:12;;;;;;;2.90;2.80;;;4.00;99.90;;;;;;4994991;28;20230;-62
2021/01/19 07:13:06;;;;;;;2.60;2.50;;;4.00;99.90;;;;;;4994789;28;20200;-62
2021/01/19 07:16:11;;;;;;;2.92;2.80;;;4.00;99.90;;;;;;4994581;28;20220;-62
2021/01/19 07:18:56;;;;;;;1.55;1.20;;;4.00;1.00;;;;;;4994533;28;20260;-62
2021/01/19 07:21:42;;;;;;;3.85;1.85;;;4.00;1.00;;;;;;4993669;28;20222;-63
2021/01/19 07:24:20;;;;;;;6.57;1.80;;;4.00;1.00;;;;;;4992887;28;20232;-63
2021/01/19 07:26:49;;;;;;;1.70;1.60;;;4.10;1.00;;;;;;4990637;28;20264;-64
2021/01/19 07:29:16;;;;;;;2.42;1.70;;;4.10;1.00;;;;;;4991861;28;20207;-64
2021/01/19 07:31:42;;;;;;;2.50;2.10;;;4.10;1.00;;;;;;4992951;28;20203;-65
2021/01/19 07:34:09;;;;;;;3.40;2.63;;;4.10;1.00;;;;;;4992551;28;20245;-65
2021/01/19 07:36:36;;;;;;;1.58;1.48;;;4.10;1.00;;;;;;4992065;28;20207;-66
2021/01/19 07:39:12;;;;;;;1.50;1.33;;;4.10;1.00;;;;;;4992032;28;20193;-66
2021/01/19 07:41:38;;;;;;;2.20;1.83;;;4.10;1.00;;;;;;4994169;28;20661;-66
2021/01/19 07:44:05;;;;;;;2.95;1.20;;;4.10;1.00;;;;;;4992103;28;20226;-65
2021/01/19 07:46:32;;;;;;;0.90;0.90;;;4.20;1.00;;;;;;4991912;28;20198;-65
2021/01/19 07:49:03;;;;;;;1.52;1.42;;;4.20;58.70;;;;;;4992270;28;20199;-66
2021/01/19 07:51:42;;;;;;;3.58;2.00;;;4.20;61.40;;;;;;4992444;28;20701;-66
2021/01/19 07:54:08;;;;;;;0.85;0.85;;;4.20;99.90;;;;;;4992442;28;20202;-64
2021/01/19 07:56:35;;;;;;;1.95;1.70;;;4.20;99.90;;;;;;4992443;28;20277;-65
2021/01/19 07:59:01;;;;;;;2.15;1.70;;;4.20;99.90;;;;;;4992503;28;20580;-65
2021/01/19 08:01:30;;;;;;;3.28;2.00;;;4.20;99.90;;;;;;4994710;28;20642;-64
2021/01/19 08:04:07;;;;;;;1.70;1.35;;;4.20;99.90;;;;;;4993146;28;20211;-64
2021/01/19 08:06:34;;;;;;;2.13;1.92;;;4.20;99.90;;;;;;4992344;28;20202;-65
2021/01/19 08:09:09;;;;;;;1.77;1.67;;;4.20;99.90;;;;;;4992024;28;20712;-64
2021/01/19 08:11:36;;;;;;;1.80;1.70;;;4.20;99.90;;;;;;4992072;28;20609;-63
2021/01/19 08:14:03;;;;;;;1.63;1.52;;;4.30;99.90;;;;;;4992038;28;20195;-64
2021/01/19 08:16:32;;;;;;;1.00;1.00;;;4.20;99.90;;;;;;4991543;28;20657;-64
2021/01/19 08:19:08;;;;;;;1.70;1.60;;;4.20;99.90;;;;;;4992248;28;20213;-64
2021/01/19 08:21:35;;;;;;;2.70;1.55;;;4.20;99.90;;;;;;4991861;28;20205;-65
2021/01/19 08:24:09;;;;;;;2.22;1.50;;;4.30;1.00;;;;;;4992357;28;20225;-65
2021/01/19 08:26:36;;;;;;;1.58;1.45;;;4.30;1.00;;;;;;4991930;28;20239;-66
2021/01/19 08:29:04;;;;;;;3.25;1.95;;;4.30;1.00;;;;;;4991973;28;20286;-66
2021/01/19 08:31:31;;;;;;;1.90;1.77;;;4.20;1.00;;;;;;4992000;28;20666;-66
2021/01/19 08:34:02;;;;;;;1.60;1.50;;;4.30;1.00;;;;;;4992380;28;20202;-66
2021/01/19 08:36:29;;;;;;;3.08;1.40;;;4.40;1.00;;;;;;4992179;28;20647;-67
2021/01/19 08:38:57;;;;;;;1.80;1.70;;;4.30;1.00;;;;;;4992548;28;20199;-67
2021/01/19 08:41:24;;;;;;;5.72;2.08;;;4.30;1.00;;;;;;4993773;28;20229;-68
2021/01/19 08:43:57;;;;;;;1.95;1.83;;;4.40;1.00;;;;;;4993484;28;20773;-65
2021/01/19 08:46:25;;;;;;;1.63;1.52;;;4.40;1.00;;;;;;4992629;28;20206;-65
2021/01/19 08:48:52;;;;;;;4.35;2.63;;;4.40;1.00;;;;;;4992624;28;20244;-65
2021/01/19 08:51:23;;;;;;;1.35;1.27;;;4.40;1.00;;;;;;4992541;28;20227;-66
2021/01/19 08:53:50;;;;;;;1.60;1.35;;;4.40;1.00;;;;;;4992824;28;20203;-66
2021/01/19 08:56:18;;;;;;;1.40;1.17;;;4.40;1.00;;;;;;4994209;28;20342;-67
2021/01/19 08:58:44;;;;;;;3.15;1.40;;;4.40;1.00;;;;;;4994039;28;20206;-66
2021/01/19 09:01:11;;;;;;;2.25;2.05;;;4.40;25.30;;;;;;4996880;28;20277;-67
2021/01/19 09:03:37;;;;;;;1.25;1.25;;;4.40;7.10;;;;;;4998493;28;20210;-67
2021/01/19 09:06:05;;;;;;;1.50;1.40;;;4.40;72.50;;;;;;5014455;28;20242;-66
2021/01/19 09:08:32;;;;;;;1.05;1.02;;;4.50;95.30;;;;;;5014425;28;20216;-66
2021/01/19 09:11:02;;;;;;;1.40;1.35;;;4.40;78.90;;;;;;5015083;28;20241;-66
2021/01/19 09:13:30;;;;;;;5.15;1.88;;;4.40;99.90;;;;;;5014591;28;20701;-67
2021/01/19 09:15:57;;;;;;;1.30;1.23;;;4.40;99.90;;;;;;5014642;28;20206;-68
2021/01/19 09:18:24;;;;;;;1.30;1.20;;;4.50;99.90;;;;;;5014410;28;20205;-65
2021/01/19 09:21:00;;;;;;;2.13;1.50;;;4.50;99.90;;;;;;5014389;28;20586;-67
2021/01/19 09:23:32;;;;;;;0.80;0.80;;;4.50;99.90;;;;;;5014080;28;20800;-64
2021/01/19 09:26:07;;;;;;;1.50;1.40;;;4.50;99.90;;;;;;5014049;28;20737;-64
2021/01/19 09:28:34;;;;;;;1.30;1.30;;;4.50;99.90;;;;;;5014303;28;20201;-66
2021/01/19 09:31:11;;;;;;;1.80;1.70;;;4.50;99.90;;;;;;5014050;28;20645;-65
2021/01/19 09:33:39;;;;;;;1.23;1.08;;;4.50;99.90;;;;;;5014152;28;20240;-65
2021/01/19 09:36:06;;;;;;;2.58;2.30;;;4.50;99.90;;;;;;5013399;28;20205;-66
2021/01/19 09:38:34;;;;;;;1.55;1.45;;;4.50;99.90;;;;;;5014263;28;20199;-67
2021/01/19 09:41:00;;;;;;;1.70;1.60;;;4.60;99.90;;;;;;5014550;28;20248;-67
2021/01/19 09:43:27;;;;;;;1.80;1.70;;;4.60;99.90;;;;;;5014293;28;20201;-67
2021/01/19 09:45:57;;;;;;;2.35;1.85;;;4.60;99.90;;;;;;5014007;28;20193;-68
2021/01/19 09:48:26;;;;;;;1.58;1.48;;;4.60;99.90;;;;;;5013656;28;20259;-66
2021/01/19 09:50:53;;;;;;;1.27;1.27;;;4.70;1.00;;;;;;5014227;28;20338;-67
2021/01/19 09:53:26;;;;;;;2.55;2.00;;;4.70;1.00;;;;;;5014075;28;20761;-65
2021/01/19 09:55:54;;;;;;;1.60;1.50;;;4.70;1.00;;;;;;5013357;28;20202;-67
2021/01/19 09:58:24;;;;;;;1.80;1.70;;;4.70;1.00;;;;;;5012578;28;20444;-67
2021/01/19 10:00:50;;;;;;;3.60;1.77;;;4.70;1.00;;;;;;5013535;28;20225;-66
2021/01/19 10:03:20;;;;;;;1.95;1.85;;;4.70;1.00;;;;;;5013673;28;20200;-66
2021/01/19 10:05:57;;;;;;;2.67;1.52;;;4.80;1.00;;;;;;5013301;28;20229;-66
2021/01/19 10:08:23;;;;;;;1.33;1.33;;;4.80;1.00;;;;;;5013617;28;20550;-66
2021/01/19 10:10:50;;;;;;;0.98;0.98;;;4.80;1.00;;;;;;5012554;28;20215;-67
2021/01/19 10:13:17;;;;;;;1.27;1.27;;;4.80;1.00;;;;;;5013230;28;20202;-67
2021/01/19 10:15:43;;;;;;;1.48;1.48;;;4.90;27.20;;;;;;5012169;28;20420;-66
2021/01/19 10:18:09;;;;;;;1.20;1.10;;;4.90;99.90;;;;;;5013123;28;20235;-66
2021/01/19 10:20:36;;;;;;;0.88;0.88;;;5.00;99.90;;;;;;5013175;28;20258;-67
2021/01/19 10:23:04;;;;;;;1.60;1.60;;;5.00;99.90;;;;;;5013271;28;20231;-67
2021/01/19 10:25:31;;;;;;;1.20;1.20;;;5.10;99.90;;;;;;5013280;28;20597;-67
2021/01/19 10:27:59;;;;;;;1.10;1.10;;;5.00;97.70;;;;;;5013158;28;20212;-65
2021/01/19 10:30:30;;;;;;;0.85;0.80;;;5.10;99.90;;;;;;5013311;28;20218;-67
2021/01/19 10:32:56;;;;;;;0.95;0.95;;;5.10;99.90;;;;;;5013357;28;20731;-68
2021/01/19 10:35:31;;;;;;;1.13;1.13;;;5.10;99.90;;;;;;5013292;28;20608;-67
2021/01/19 10:38:00;;;;;;;1.58;1.48;;;5.20;99.90;;;;;;5012868;28;20203;-67
2021/01/19 10:40:26;;;;;;;1.70;1.60;;;5.20;99.90;;;;;;5013182;28;20247;-68
2021/01/19 10:42:53;;;;;;;0.95;0.95;;;5.20;99.90;;;;;;5013074;28;20728;-67
2021/01/19 10:45:29;;;;;;;0.77;0.77;;;5.20;99.90;;;;;;5013033;28;20276;-66
2021/01/19 10:47:58;;;;;;;1.00;1.00;;;5.30;99.90;;;;;;5012833;28;20198;-68
2021/01/19 10:50:29;;;;;;;1.65;1.65;;;5.30;99.90;;;;;;5013023;28;20222;-68
2021/01/19 10:52:56;;;;;;;0.90;0.90;;;5.40;99.90;;;;;;5013038;28;20593;-71
2021/01/19 10:55:23;;;;;;;1.50;1.40;;;5.40;99.90;;;;;;5012741;28;20198;-70
2021/01/19 10:57:53;;;;;;;1.20;1.20;;;5.40;99.90;;;;;;5013331;28;20448;-70
2021/01/19 11:00:20;;;;;;;0.57;0.57;;;5.50;99.90;;;;;;5013035;28;20219;-66
2021/01/19 11:02:47;;;;;;;0.80;0.80;;;5.50;99.90;;;;;;5013230;28;20206;-67
2021/01/19 11:05:13;;;;;;;0.73;0.73;;;5.50;99.90;;;;;;5012876;28;20265;-65
2021/01/19 11:07:44;;;;;;;0.65;0.65;;;5.50;99.90;;;;;;5011566;28;20201;-64
2021/01/19 11:10:11;;;;;;;0.75;0.75;;;5.60;1.00;;;;;;5013156;28;20260;-65
2021/01/19 11:12:37;;;;;;;0.70;0.70;;;5.60;1.00;;;;;;5012612;28;20200;-68
2021/01/19 11:15:05;;;;;;;1.20;1.20;;;5.70;1.00;;;;;;5012949;28;20617;-65
2021/01/19 11:17:31;;;;;;;1.00;1.00;;;5.70;1.00;;;;;;5012087;28;20210;-65
2021/01/19 11:19:58;;;;;;;0.77;0.77;;;5.70;1.00;;;;;;5011831;28;20296;-65
2021/01/19 11:22:24;;;;;;;1.10;1.10;;;5.80;1.00;;;;;;5012590;28;20199;-65
2021/01/19 11:24:51;;;;;;;1.15;1.15;;;5.80;1.00;;;;;;5011928;28;20221;-65
2021/01/19 11:27:17;;;;;;;1.07;1.07;;;5.80;1.00;;;;;;5012220;28;20222;-65
2021/01/19 11:29:43;;;;;;;1.10;1.02;;;5.80;1.00;;;;;;5011528;28;20515;-68
2021/01/19 11:32:09;;;;;;;1.40;1.40;;;5.80;1.00;;;;;;4992247;28;20203;-68
2021/01/19 11:34:35;;;;;;;1.23;1.13;;;5.90;1.00;;;;;;4994419;28;20196;-69
2021/01/19 11:37:02;;;;;;;0.93;0.90;;;5.90;1.00;;;;;;4991852;28;20203;-69
2021/01/19 11:39:29;;;;;;;0.90;0.90;;;5.90;1.00;;;;;;4992537;28;20226;-68
2021/01/19 11:41:55;;;;;;;0.80;0.80;;;5.90;1.00;;;;;;4992201;28;20206;-67
2021/01/19 11:44:22;;;;;;;0.55;0.52;;;5.90;1.00;;;;;;4992218;28;20233;-68
2021/01/19 11:46:49;;;;;;;1.25;0.90;;;5.90;1.00;;;;;;4992031;28;20930;-68
2021/01/19 11:49:15;;;;;;;1.13;1.13;;;5.90;1.00;;;;;;4991949;28;20265;-67
2021/01/19 11:51:41;;;;;;;0.85;0.85;;;5.90;1.00;;;;;;4992531;28;20221;-70
2021/01/19 11:54:09;;;;;;;1.13;1.13;;;6.00;1.00;;;;;;4993431;28;20207;-66
2021/01/19 11:56:37;;;;;;;1.27;1.27;;;6.00;1.00;;;;;;4997984;28;20617;-66
2021/01/19 11:59:04;;;;;;;2.58;2.03;;;6.00;1.00;;;;;;4991807;28;20202;-68
2021/01/19 12:01:30;;;;;;;0.90;0.90;;;6.10;1.00;;;;;;4991445;28;20253;-66
2021/01/19 12:03:57;;;;;;;1.25;1.25;;;6.10;1.00;;;;;;4989584;28;20203;-68
2021/01/19 12:06:23;;;;;;;1.52;1.52;;;6.20;11.60;;;;;;4991594;28;20718;-68
2021/01/19 12:08:50;;;;;;;0.45;0.45;;;6.20;42.50;;;;;;4992301;28;20673;-68
2021/01/19 12:11:18;;;;;;;0.20;0.20;;;6.20;62.30;;;;;;4992374;28;20226;-70
2021/01/19 12:13:45;;;;;;;0.32;0.30;;;6.30;81.40;;;;;;4992702;28;20666;-68
2021/01/19 12:16:12;;;;;;;0.00;0.00;;;6.30;94.20;;;;;;4992757;28;20203;-67
2021/01/19 12:18:40;;;;;;;0.00;0.00;;;6.30;99.90;;;;;;4993379;28;20213;-66
2021/01/19 12:21:09;;;;;;;0.00;0.00;;;6.30;99.90;;;;;;4994454;28;20223;-66
2021/01/19 12:23:36;;;;;;;0.00;0.00;;;6.40;99.90;;;;;;4994407;28;20266;-67
2021/01/19 12:26:02;;;;;;;0.00;0.00;;;6.40;99.90;;;;;;4992226;28;20365;-66
2021/01/19 12:28:29;;;;;;;0.00;0.00;;;6.40;99.90;;;;;;4992263;28;20442;-63
2021/01/19 12:30:55;;;;;;;0.00;0.00;;;6.50;99.90;;;;;;4991840;28;20753;-66
2021/01/19 12:33:21;;;;;;;0.00;0.00;;;6.50;99.90;;;;;;4992817;28;20238;-65
2021/01/19 12:35:48;;;;;;;0.00;0.00;;;6.50;99.90;;;;;;4995309;28;20195;-66
2021/01/19 12:38:14;;;;;;;0.00;0.00;;;6.60;99.90;;;;;;4995903;28;20200;-65
2021/01/19 12:40:40;;;;;;;0.00;0.00;;;6.60;99.90;;;;;;4995694;28;20222;-67
2021/01/19 12:43:08;;;;;;;0.00;0.00;;;6.70;99.90;;;;;;4995662;28;20234;-67
2021/01/19 12:45:35;;;;;;;0.00;0.00;;;6.70;99.90;;;;;;4995391;28;20222;-66
2021/01/19 12:48:01;;;;;;;0.00;0.00;;;6.70;99.90;;;;;;4995856;28;20453;-64
2021/01/19 12:50:27;;;;;;;0.00;0.00;;;6.70;99.90;;;;;;4995415;28;20222;-64
2021/01/19 12:52:54;;;;;;;0.00;0.00;;;6.80;99.90;;;;;;4995823;28;20551;-65
2021/01/19 12:55:20;;;;;;;0.00;0.00;;;6.80;99.90;;;;;;4995688;28;20195;-65
2021/01/19 12:57:46;;;;;;;0.00;0.00;;;6.80;99.90;;;;;;4995433;28;20199;-65
2021/01/19 13:00:13;;;;;;;0.00;0.00;;;6.90;99.90;;;;;;4995811;28;20278;-66
2021/01/19 13:02:40;;;;;;;0.00;0.00;;;6.90;99.90;;;;;;4995872;28;20442;-65
2021/01/19 13:05:09;;;;;;;0.00;0.00;;;6.90;99.90;;;;;;4995264;28;20544;-65
2021/01/19 13:07:35;;;;;;;0.00;0.00;;;6.80;99.90;;;;;;4994890;28;20195;-64
2021/01/19 13:10:01;;;;;;;0.00;0.00;;;6.80;99.90;;;;;;4995413;28;20464;-64